Powell, Texas
Current Conditions -  °F | °C
As of 8:31 AM on Friday 19 Dec 2014 (Local Time) from KCRS Reporting Station
Light Rain Light Rain  
Wind Chill: 43°   Ceiling: 400
Heat Index: 47°   Visibility: 2mi
Dew Point: 45°   Wind: 8mph
Humidity: 93%   Direction: 30°NNE
Pressure: 30.16"   Gusts: NA
Location:  32.12°N, 96.32°W
Report Text: KCRS 191431Z AUTO 03007KT 2SM -RA BR BKN004 BKN065 OVC080 08/07 A3016 RMK AO2 P0007 T00830072
Loading
Personal Weather Stations






























Interactive Weather Map New forecast layout! Learn more

10-Day Weather Forecast

Advertisements
Track Severe Weather on mobile